sensor_id;sensor_type;location;lat;lon;timestamp;pressure;altitude;pressure_sealevel;temperature;humidity
35577;BME280;21680;52.400;16.920;2022-09-09T00:00:24;100238.33;;;16.45;75.19
35577;BME280;21680;52.400;16.920;2022-09-09T00:03:00;100235.52;;;16.47;75.39
35577;BME280;21680;52.400;16.920;2022-09-09T00:05:42;100231.83;;;16.48;75.40
35577;BME280;21680;52.400;16.920;2022-09-09T00:08:11;100229.99;;;16.48;75.56
35577;BME280;21680;52.400;16.920;2022-09-09T00:10:41;100226.80;;;16.49;75.46
35577;BME280;21680;52.400;16.920;2022-09-09T00:13:14;100223.95;;;16.45;75.45
35577;BME280;21680;52.400;16.920;2022-09-09T00:15:51;100214.97;;;16.44;75.58
35577;BME280;21680;52.400;16.920;2022-09-09T00:18:46;100209.67;;;16.43;75.66
35577;BME280;21680;52.400;16.920;2022-09-09T00:21:38;100213.35;;;16.42;75.66
35577;BME280;21680;52.400;16.920;2022-09-09T00:24:10;100213.09;;;16.39;75.53
35577;BME280;21680;52.400;16.920;2022-09-09T00:26:40;100220.45;;;16.37;75.59
35577;BME280;21680;52.400;16.920;2022-09-09T00:29:31;100225.72;;;16.33;75.39
35577;BME280;21680;52.400;16.920;2022-09-09T00:32:13;100227.67;;;16.31;75.67
35577;BME280;21680;52.400;16.920;2022-09-09T00:34:53;100226.55;;;16.28;75.79
35577;BME280;21680;52.400;16.920;2022-09-09T00:37:20;100225.41;;;16.25;75.60
35577;BME280;21680;52.400;16.920;2022-09-09T00:39:47;100224.92;;;16.26;75.78
35577;BME280;21680;52.400;16.920;2022-09-09T00:42:15;100224.06;;;16.25;75.74
35577;BME280;21680;52.400;16.920;2022-09-09T00:47:45;100232.55;;;16.26;75.92
35577;BME280;21680;52.400;16.920;2022-09-09T00:55:54;100230.08;;;16.23;75.98
35577;BME280;21680;52.400;16.920;2022-09-09T00:58:30;100229.81;;;16.20;76.09
35577;BME280;21680;52.400;16.920;2022-09-09T01:01:03;100238.41;;;16.20;76.23
35577;BME280;21680;52.400;16.920;2022-09-09T01:03:38;100241.11;;;16.20;76.29
35577;BME280;21680;52.400;16.920;2022-09-09T01:06:29;100239.88;;;16.18;76.51
35577;BME280;21680;52.400;16.920;2022-09-09T01:11:47;100246.03;;;16.20;76.53
35577;BME280;21680;52.400;16.920;2022-09-09T01:14:29;100250.20;;;16.19;76.59
35577;BME280;21680;52.400;16.920;2022-09-09T01:16:58;100242.09;;;16.19;76.55
35577;BME280;21680;52.400;16.920;2022-09-09T01:19:36;100251.17;;;16.18;76.74
35577;BME280;21680;52.400;16.920;2022-09-09T01:22:07;100246.38;;;16.16;76.62
35577;BME280;21680;52.400;16.920;2022-09-09T01:24:41;100251.89;;;16.14;76.73
35577;BME280;21680;52.400;16.920;2022-09-09T01:27:17;100254.33;;;16.12;77.01
35577;BME280;21680;52.400;16.920;2022-09-09T01:29:43;100261.58;;;16.11;76.96
35577;BME280;21680;52.400;16.920;2022-09-09T01:35:13;100263.86;;;16.05;77.30
35577;BME280;21680;52.400;16.920;2022-09-09T01:37:39;100271.33;;;16.01;77.38
35577;BME280;21680;52.400;16.920;2022-09-09T01:40:06;100270.67;;;15.98;77.49
35577;BME280;21680;52.400;16.920;2022-09-09T01:42:32;100269.92;;;15.96;77.56
35577;BME280;21680;52.400;16.920;2022-09-09T01:44:58;100276.03;;;15.92;77.55
35577;BME280;21680;52.400;16.920;2022-09-09T01:47:23;100268.52;;;15.90;77.52
35577;BME280;21680;52.400;16.920;2022-09-09T01:49:49;100271.44;;;15.87;77.59
35577;BME280;21680;52.400;16.920;2022-09-09T01:52:15;100268.96;;;15.84;77.65
35577;BME280;21680;52.400;16.920;2022-09-09T01:54:41;100274.95;;;15.82;77.74
35577;BME280;21680;52.400;16.920;2022-09-09T01:59:50;100270.96;;;15.75;77.63
35577;BME280;21680;52.400;16.920;2022-09-09T02:05:32;100269.17;;;15.68;77.89
35577;BME280;21680;52.400;16.920;2022-09-09T02:08:29;100273.06;;;15.64;78.21
35577;BME280;21680;52.400;16.920;2022-09-09T02:10:56;100279.69;;;15.60;78.20
35577;BME280;21680;52.400;16.920;2022-09-09T02:13:26;100279.01;;;15.56;78.17
35577;BME280;21680;52.400;16.920;2022-09-09T02:15:55;100280.47;;;15.55;78.29
35577;BME280;21680;52.400;16.920;2022-09-09T02:18:35;100280.19;;;15.52;78.12
35577;BME280;21680;52.400;16.920;2022-09-09T02:20:57;100287.16;;;15.49;78.31
35577;BME280;21680;52.400;16.920;2022-09-09T02:23:23;100285.53;;;15.47;78.43
35577;BME280;21680;52.400;16.920;2022-09-09T02:25:49;100290.66;;;15.44;78.45
35577;BME280;21680;52.400;16.920;2022-09-09T02:28:16;100290.77;;;15.43;78.53
35577;BME280;21680;52.400;16.920;2022-09-09T02:30:43;100291.84;;;15.40;78.47
35577;BME280;21680;52.400;16.920;2022-09-09T02:33:12;100297.94;;;15.37;78.38
35577;BME280;21680;52.400;16.920;2022-09-09T02:35:39;100299.61;;;15.32;78.33
35577;BME280;21680;52.400;16.920;2022-09-09T02:38:07;100297.60;;;15.29;78.62
35577;BME280;21680;52.400;16.920;2022-09-09T02:40:34;100303.59;;;15.26;78.78
35577;BME280;21680;52.400;16.920;2022-09-09T02:43:00;100297.05;;;15.23;78.75
35577;BME280;21680;52.400;16.920;2022-09-09T02:45:27;100298.02;;;15.22;78.79
35577;BME280;21680;52.400;16.920;2022-09-09T02:47:58;100298.71;;;15.19;78.90
35577;BME280;21680;52.400;16.920;2022-09-09T02:50:33;100310.97;;;15.17;78.96
35577;BME280;21680;52.400;16.920;2022-09-09T02:53:08;100299.13;;;15.13;78.76
35577;BME280;21680;52.400;16.920;2022-09-09T02:55:46;100305.02;;;15.12;78.99
35577;BME280;21680;52.400;16.920;2022-09-09T02:58:14;100310.52;;;15.11;79.08
35577;BME280;21680;52.400;16.920;2022-09-09T03:00:48;100307.92;;;15.09;79.03
35577;BME280;21680;52.400;16.920;2022-09-09T03:03:15;100310.83;;;15.06;78.91
35577;BME280;21680;52.400;16.920;2022-09-09T03:05:41;100312.66;;;15.06;79.13
35577;BME280;21680;52.400;16.920;2022-09-09T03:08:07;100316.81;;;15.04;78.98
35577;BME280;21680;52.400;16.920;2022-09-09T03:10:34;100316.25;;;14.99;78.92
35577;BME280;21680;52.400;16.920;2022-09-09T03:13:00;100317.70;;;14.98;78.95
35577;BME280;21680;52.400;16.920;2022-09-09T03:15:26;100319.26;;;14.94;78.84
35577;BME280;21680;52.400;16.920;2022-09-09T03:17:53;100320.70;;;14.93;79.03
35577;BME280;21680;52.400;16.920;2022-09-09T03:20:20;100317.73;;;14.90;79.10
35577;BME280;21680;52.400;16.920;2022-09-09T03:22:45;100321.87;;;14.89;79.22
35577;BME280;21680;52.400;16.920;2022-09-09T03:25:11;100323.23;;;14.89;79.28
35577;BME280;21680;52.400;16.920;2022-09-09T03:27:36;100328.24;;;14.88;79.39
35577;BME280;21680;52.400;16.920;2022-09-09T03:30:02;100330.08;;;14.87;79.49
35577;BME280;21680;52.400;16.920;2022-09-09T03:32:28;100327.96;;;14.85;79.44
35577;BME280;21680;52.400;16.920;2022-09-09T03:34:54;100333.84;;;14.85;79.43
35577;BME280;21680;52.400;16.920;2022-09-09T03:37:20;100333.94;;;14.83;79.48
35577;BME280;21680;52.400;16.920;2022-09-09T03:39:45;100335.39;;;14.82;79.40
35577;BME280;21680;52.400;16.920;2022-09-09T03:42:14;100338.19;;;14.80;79.54
35577;BME280;21680;52.400;16.920;2022-09-09T03:44:42;100340.41;;;14.81;79.57
35577;BME280;21680;52.400;16.920;2022-09-09T03:47:08;100335.39;;;14.82;79.75
35577;BME280;21680;52.400;16.920;2022-09-09T03:49:33;100338.86;;;14.84;79.74
35577;BME280;21680;52.400;16.920;2022-09-09T03:51:59;100344.64;;;14.85;79.69
35577;BME280;21680;52.400;16.920;2022-09-09T03:54:26;100341.66;;;14.82;79.57
35577;BME280;21680;52.400;16.920;2022-09-09T03:56:52;100349.37;;;14.81;79.69
35577;BME280;21680;52.400;16.920;2022-09-09T03:59:18;100350.81;;;14.80;79.61
35577;BME280;21680;52.400;16.920;2022-09-09T04:01:44;100350.05;;;14.78;79.59
35577;BME280;21680;52.400;16.920;2022-09-09T04:04:10;100349.28;;;14.76;79.73
35577;BME280;21680;52.400;16.920;2022-09-09T04:06:37;100352.08;;;14.74;79.72
35577;BME280;21680;52.400;16.920;2022-09-09T04:09:02;100348.62;;;14.72;79.79
35577;BME280;21680;52.400;16.920;2022-09-09T04:11:28;100353.62;;;14.71;79.69
35577;BME280;21680;52.400;16.920;2022-09-09T04:13:54;100349.78;;;14.68;79.77
35577;BME280;21680;52.400;16.920;2022-09-09T04:16:20;100356.63;;;14.67;79.79
35577;BME280;21680;52.400;16.920;2022-09-09T04:18:45;100358.94;;;14.66;79.86
35577;BME280;21680;52.400;16.920;2022-09-09T04:21:12;100363.38;;;14.67;79.91
35577;BME280;21680;52.400;16.920;2022-09-09T04:23:38;100364.81;;;14.65;79.81
35577;BME280;21680;52.400;16.920;2022-09-09T04:26:04;100362.13;;;14.65;79.78
35577;BME280;21680;52.400;16.920;2022-09-09T04:28:32;100365.59;;;14.67;79.87
35577;BME280;21680;52.400;16.920;2022-09-09T04:31:04;100367.22;;;14.70;79.95
35577;BME280;21680;52.400;16.920;2022-09-09T04:33:31;100369.53;;;14.69;79.87
35577;BME280;21680;52.400;16.920;2022-09-09T04:35:56;100370.50;;;14.68;79.92
35577;BME280;21680;52.400;16.920;2022-09-09T04:38:22;100365.00;;;14.69;79.95
35577;BME280;21680;52.400;16.920;2022-09-09T04:40:48;100375.02;;;14.74;80.09
35577;BME280;21680;52.400;16.920;2022-09-09T04:43:16;100370.88;;;14.76;80.00
35577;BME280;21680;52.400;16.920;2022-09-09T04:45:43;100363.16;;;14.77;79.81
35577;BME280;21680;52.400;16.920;2022-09-09T04:48:09;100365.76;;;14.78;79.84
35577;BME280;21680;52.400;16.920;2022-09-09T04:50:37;100372.50;;;14.78;79.96
35577;BME280;21680;52.400;16.920;2022-09-09T04:53:03;100378.66;;;14.80;80.21
35577;BME280;21680;52.400;16.920;2022-09-09T04:55:30;100375.00;;;14.81;80.26
35577;BME280;21680;52.400;16.920;2022-09-09T04:57:56;100376.63;;;14.84;80.16
35577;BME280;21680;52.400;16.920;2022-09-09T05:00:23;100377.50;;;14.84;80.08
35577;BME280;21680;52.400;16.920;2022-09-09T05:02:49;100382.31;;;14.86;80.28
35577;BME280;21680;52.400;16.920;2022-09-09T05:05:16;100385.30;;;14.89;80.38
35577;BME280;21680;52.400;16.920;2022-09-09T05:07:41;100383.84;;;14.90;80.55
35577;BME280;21680;52.400;16.920;2022-09-09T05:10:08;100391.74;;;14.93;80.45
35577;BME280;21680;52.400;16.920;2022-09-09T05:12:35;100387.98;;;14.96;80.61
35577;BME280;21680;52.400;16.920;2022-09-09T05:15:01;100389.70;;;14.97;80.64
35577;BME280;21680;52.400;16.920;2022-09-09T05:17:26;100394.14;;;14.98;80.57
35577;BME280;21680;52.400;16.920;2022-09-09T05:19:52;100393.37;;;14.96;80.65
35577;BME280;21680;52.400;16.920;2022-09-09T05:22:19;100397.04;;;14.95;80.69
35577;BME280;21680;52.400;16.920;2022-09-09T05:24:45;100398.00;;;14.94;81.03
35577;BME280;21680;52.400;16.920;2022-09-09T05:27:11;100400.98;;;14.97;81.06
35577;BME280;21680;52.400;16.920;2022-09-09T05:29:37;100400.13;;;14.96;81.89
35577;BME280;21680;52.400;16.920;2022-09-09T05:32:04;100400.41;;;14.99;81.33
35577;BME280;21680;52.400;16.920;2022-09-09T05:34:29;100396.64;;;15.01;81.53
35577;BME280;21680;52.400;16.920;2022-09-09T05:36:55;100398.75;;;15.03;81.54
35577;BME280;21680;52.400;16.920;2022-09-09T05:39:21;100398.06;;;15.07;81.67
35577;BME280;21680;52.400;16.920;2022-09-09T05:41:48;100401.15;;;15.08;81.57
35577;BME280;21680;52.400;16.920;2022-09-09T05:44:14;100397.48;;;15.09;81.63
35577;BME280;21680;52.400;16.920;2022-09-09T05:46:39;100402.30;;;15.11;81.74
35577;BME280;21680;52.400;16.920;2022-09-09T05:49:05;100406.34;;;15.11;81.83
35577;BME280;21680;52.400;16.920;2022-09-09T05:51:32;100404.03;;;15.12;81.86
35577;BME280;21680;52.400;16.920;2022-09-09T05:53:57;100401.23;;;15.13;82.07
35577;BME280;21680;52.400;16.920;2022-09-09T05:56:24;100398.50;;;15.20;82.20
35577;BME280;21680;52.400;16.920;2022-09-09T05:58:51;100401.66;;;15.27;82.19
35577;BME280;21680;52.400;16.920;2022-09-09T06:01:19;100399.04;;;15.33;81.97
35577;BME280;21680;52.400;16.920;2022-09-09T06:03:53;100402.30;;;15.38;82.21
35577;BME280;21680;52.400;16.920;2022-09-09T06:06:20;100402.27;;;15.45;82.18
35577;BME280;21680;52.400;16.920;2022-09-09T06:08:48;100404.94;;;15.52;82.33
35577;BME280;21680;52.400;16.920;2022-09-09T06:11:17;100409.72;;;15.61;82.41
35577;BME280;21680;52.400;16.920;2022-09-09T06:13:44;100415.36;;;15.71;82.32
35577;BME280;21680;52.400;16.920;2022-09-09T06:16:16;100408.67;;;15.76;82.11
35577;BME280;21680;52.400;16.920;2022-09-09T06:18:42;100404.41;;;15.79;82.28
35577;BME280;21680;52.400;16.920;2022-09-09T06:21:15;100413.55;;;15.84;82.11
35577;BME280;21680;52.400;16.920;2022-09-09T06:23:45;100413.93;;;15.85;82.03
35577;BME280;21680;52.400;16.920;2022-09-09T06:26:17;100412.06;;;15.73;82.02
35577;BME280;21680;52.400;16.920;2022-09-09T06:28:47;100416.81;;;15.69;82.34
35577;BME280;21680;52.400;16.920;2022-09-09T06:31:15;100412.06;;;15.73;82.51
35577;BME280;21680;52.400;16.920;2022-09-09T06:33:42;100415.50;;;15.82;82.57
35577;BME280;21680;52.400;16.920;2022-09-09T06:36:13;100409.60;;;15.82;82.34
35577;BME280;21680;52.400;16.920;2022-09-09T06:38:43;100412.63;;;15.78;82.23
35577;BME280;21680;52.400;16.920;2022-09-09T06:41:10;100411.38;;;15.76;82.34
35577;BME280;21680;52.400;16.920;2022-09-09T06:43:37;100418.52;;;15.77;82.42
35577;BME280;21680;52.400;16.920;2022-09-09T06:46:05;100415.91;;;15.76;82.30
35577;BME280;21680;52.400;16.920;2022-09-09T06:48:33;100419.66;;;15.80;82.43
35577;BME280;21680;52.400;16.920;2022-09-09T06:51:06;100424.47;;;15.82;82.18
35577;BME280;21680;52.400;16.920;2022-09-09T06:53:38;100415.28;;;15.85;82.45
35577;BME280;21680;52.400;16.920;2022-09-09T06:58:48;100415.34;;;15.90;82.39
35577;BME280;21680;52.400;16.920;2022-09-09T07:01:15;100414.65;;;15.94;82.21
35577;BME280;21680;52.400;16.920;2022-09-09T07:03:42;100419.08;;;15.95;82.20
35577;BME280;21680;52.400;16.920;2022-09-09T07:06:13;100418.87;;;15.98;82.28
35577;BME280;21680;52.400;16.920;2022-09-09T07:08:48;100428.61;;;16.01;82.17
35577;BME280;21680;52.400;16.920;2022-09-09T07:11:19;100423.75;;;16.06;82.33
35577;BME280;21680;52.400;16.920;2022-09-09T07:13:45;100420.72;;;16.10;82.29
35577;BME280;21680;52.400;16.920;2022-09-09T07:16:13;100418.88;;;16.11;82.15
35577;BME280;21680;52.400;16.920;2022-09-09T07:18:43;100419.27;;;16.12;82.28
35577;BME280;21680;52.400;16.920;2022-09-09T07:21:09;100420.13;;;16.12;82.23
35577;BME280;21680;52.400;16.920;2022-09-09T07:23:37;100421.38;;;16.14;82.23
35577;BME280;21680;52.400;16.920;2022-09-09T07:26:10;100415.38;;;16.16;82.22
35577;BME280;21680;52.400;16.920;2022-09-09T07:28:41;100419.81;;;16.17;82.17
35577;BME280;21680;52.400;16.920;2022-09-09T07:31:08;100418.13;;;16.21;82.15
35577;BME280;21680;52.400;16.920;2022-09-09T07:33:38;100418.41;;;16.24;82.24
35577;BME280;21680;52.400;16.920;2022-09-09T07:36:06;100416.89;;;16.33;82.22
35577;BME280;21680;52.400;16.920;2022-09-09T07:38:41;100420.13;;;16.38;82.09
35577;BME280;21680;52.400;16.920;2022-09-09T07:41:10;100422.02;;;16.43;82.18
35577;BME280;21680;52.400;16.920;2022-09-09T07:43:43;100415.69;;;16.49;82.07
35577;BME280;21680;52.400;16.920;2022-09-09T07:46:08;100418.93;;;16.54;81.95
35577;BME280;21680;52.400;16.920;2022-09-09T07:48:34;100426.83;;;16.58;81.85
35577;BME280;21680;52.400;16.920;2022-09-09T07:51:08;100421.20;;;16.61;81.92
35577;BME280;21680;52.400;16.920;2022-09-09T07:53:40;100425.83;;;16.66;81.90
35577;BME280;21680;52.400;16.920;2022-09-09T07:56:06;100424.52;;;16.71;81.88
35577;BME280;21680;52.400;16.920;2022-09-09T07:58:34;100429.64;;;16.81;81.88
35577;BME280;21680;52.400;16.920;2022-09-09T08:01:08;100434.13;;;16.88;81.83
35577;BME280;21680;52.400;16.920;2022-09-09T08:03:34;100434.80;;;16.97;81.75
35577;BME280;21680;52.400;16.920;2022-09-09T08:06:00;100434.73;;;17.04;81.68
35577;BME280;21680;52.400;16.920;2022-09-09T08:08:31;100431.34;;;17.13;81.60
35577;BME280;21680;52.400;16.920;2022-09-09T08:11:07;100430.89;;;17.19;81.40
35577;BME280;21680;52.400;16.920;2022-09-09T08:13:35;100438.19;;;17.25;81.34
35577;BME280;21680;52.400;16.920;2022-09-09T08:16:08;100439.46;;;17.32;81.24
35577;BME280;21680;52.400;16.920;2022-09-09T08:18:36;100437.27;;;17.37;81.21
35577;BME280;21680;52.400;16.920;2022-09-09T08:21:10;100441.74;;;17.43;81.09
35577;BME280;21680;52.400;16.920;2022-09-09T08:23:42;100438.45;;;17.51;81.04
35577;BME280;21680;52.400;16.920;2022-09-09T08:26:10;100444.28;;;17.58;80.92
35577;BME280;21680;52.400;16.920;2022-09-09T08:28:38;100443.70;;;17.65;80.89
35577;BME280;21680;52.400;16.920;2022-09-09T08:33:41;100443.69;;;17.83;80.78
35577;BME280;21680;52.400;16.920;2022-09-09T08:36:10;100444.09;;;17.96;80.72
35577;BME280;21680;52.400;16.920;2022-09-09T08:38:38;100442.03;;;18.05;80.56
35577;BME280;21680;52.400;16.920;2022-09-09T08:41:12;100440.94;;;18.13;80.46
35577;BME280;21680;52.400;16.920;2022-09-09T08:43:37;100438.83;;;18.22;80.33
35577;BME280;21680;52.400;16.920;2022-09-09T08:46:07;100440.57;;;18.29;80.15
35577;BME280;21680;52.400;16.920;2022-09-09T08:48:51;100445.89;;;18.36;80.17
35577;BME280;21680;52.400;16.920;2022-09-09T08:51:20;100443.06;;;18.43;79.97
35577;BME280;21680;52.400;16.920;2022-09-09T08:53:48;100449.61;;;18.46;79.88
35577;BME280;21680;52.400;16.920;2022-09-09T08:56:16;100444.30;;;18.50;79.79
35577;BME280;21680;52.400;16.920;2022-09-09T08:58:47;100452.70;;;18.53;79.64
35577;BME280;21680;52.400;16.920;2022-09-09T09:01:17;100446.04;;;18.57;79.66
35577;BME280;21680;52.400;16.920;2022-09-09T09:06:54;100449.78;;;18.72;79.54
35577;BME280;21680;52.400;16.920;2022-09-09T09:09:36;100443.98;;;18.83;79.43
35577;BME280;21680;52.400;16.920;2022-09-09T09:12:01;100444.22;;;18.96;79.43
35577;BME280;21680;52.400;16.920;2022-09-09T09:14:28;100441.23;;;19.10;79.34
35577;BME280;21680;52.400;16.920;2022-09-09T09:17:16;100443.19;;;19.25;79.20
35577;BME280;21680;52.400;16.920;2022-09-09T09:19:45;100445.38;;;19.37;79.04
35577;BME280;21680;52.400;16.920;2022-09-09T09:22:32;100440.28;;;19.49;78.93
35577;BME280;21680;52.400;16.920;2022-09-09T09:25:02;100442.16;;;19.54;78.61
35577;BME280;21680;52.400;16.920;2022-09-09T09:27:43;100444.47;;;19.64;78.54
35577;BME280;21680;52.400;16.920;2022-09-09T09:30:31;100439.98;;;19.74;78.44
35577;BME280;21680;52.400;16.920;2022-09-09T09:33:02;100444.51;;;19.85;78.21
35577;BME280;21680;52.400;16.920;2022-09-09T09:35:30;100449.03;;;19.96;77.99
35577;BME280;21680;52.400;16.920;2022-09-09T09:37:55;100443.70;;;20.00;77.75
35577;BME280;21680;52.400;16.920;2022-09-09T09:40:21;100448.48;;;20.07;77.69
35577;BME280;21680;52.400;16.920;2022-09-09T09:42:57;100451.14;;;20.19;77.58
35577;BME280;21680;52.400;16.920;2022-09-09T09:45:43;100448.71;;;20.31;77.45
35577;BME280;21680;52.400;16.920;2022-09-09T09:48:13;100447.67;;;20.43;77.25
35577;BME280;21680;52.400;16.920;2022-09-09T09:50:51;100447.73;;;20.53;77.01
35577;BME280;21680;52.400;16.920;2022-09-09T09:53:29;100448.91;;;20.60;76.88
35577;BME280;21680;52.400;16.920;2022-09-09T09:55:59;100449.47;;;20.69;76.53
35577;BME280;21680;52.400;16.920;2022-09-09T09:58:26;100452.59;;;20.80;76.39
35577;BME280;21680;52.400;16.920;2022-09-09T10:00:53;100443.30;;;20.92;76.28
35577;BME280;21680;52.400;16.920;2022-09-09T10:05:54;100445.01;;;21.23;75.95
35577;BME280;21680;52.400;16.920;2022-09-09T10:08:22;100443.61;;;21.38;75.73
35577;BME280;21680;52.400;16.920;2022-09-09T10:10:51;100446.86;;;21.48;75.24
35577;BME280;21680;52.400;16.920;2022-09-09T10:16:40;100448.74;;;21.66;74.70
35577;BME280;21680;52.400;16.920;2022-09-09T10:19:29;100447.37;;;21.66;74.20
35577;BME280;21680;52.400;16.920;2022-09-09T10:22:12;100446.31;;;21.83;74.21
35577;BME280;21680;52.400;16.920;2022-09-09T10:25:02;100450.48;;;21.96;73.83
35577;BME280;21680;52.400;16.920;2022-09-09T10:36:26;100456.30;;;22.59;72.34
35577;BME280;21680;52.400;16.920;2022-09-09T10:39:10;100452.73;;;22.73;71.44
35577;BME280;21680;52.400;16.920;2022-09-09T10:52:46;100464.88;;;22.84;69.37
35577;BME280;21680;52.400;16.920;2022-09-09T10:55:24;100465.95;;;22.87;68.92
35577;BME280;21680;52.400;16.920;2022-09-09T10:57:53;100465.86;;;22.92;68.78
35577;BME280;21680;52.400;16.920;2022-09-09T11:00:20;100465.00;;;22.92;68.42
35577;BME280;21680;52.400;16.920;2022-09-09T11:02:57;100466.72;;;22.93;68.17
35577;BME280;21680;52.400;16.920;2022-09-09T11:05:31;100459.44;;;22.97;68.23
35577;BME280;21680;52.400;16.920;2022-09-09T11:10:48;100460.70;;;23.17;67.68
35577;BME280;21680;52.400;16.920;2022-09-09T11:13:18;100468.10;;;23.20;67.34
35577;BME280;21680;52.400;16.920;2022-09-09T11:15:57;100468.20;;;23.15;66.67
35577;BME280;21680;52.400;16.920;2022-09-09T11:18:20;100463.80;;;23.04;66.54
35577;BME280;21680;52.400;16.920;2022-09-09T11:20:58;100469.15;;;22.96;66.25
35577;BME280;21680;52.400;16.920;2022-09-09T11:23:42;100463.73;;;23.00;66.06
35577;BME280;21680;52.400;16.920;2022-09-09T11:26:03;100463.39;;;23.13;65.90
35577;BME280;21680;52.400;16.920;2022-09-09T11:37:00;100465.48;;;23.60;63.57
35577;BME280;21680;52.400;16.920;2022-09-09T11:42:30;100466.00;;;23.59;63.00
35577;BME280;21680;52.400;16.920;2022-09-09T11:44:56;100475.09;;;23.19;62.12
35577;BME280;21680;52.400;16.920;2022-09-09T11:52:45;100461.29;;;22.83;62.40
35577;BME280;21680;52.400;16.920;2022-09-09T11:55:24;100461.01;;;23.00;62.19
35577;BME280;21680;52.400;16.920;2022-09-09T11:58:04;100464.80;;;23.03;62.27
35577;BME280;21680;52.400;16.920;2022-09-09T12:00:44;100464.05;;;23.11;61.61
35577;BME280;21680;52.400;16.920;2022-09-09T12:03:30;100459.75;;;23.22;60.75
35577;BME280;21680;52.400;16.920;2022-09-09T12:05:37;100459.80;;;23.26;61.43
35577;BME280;21680;52.400;16.920;2022-09-09T12:08:04;100451.39;;;23.23;60.80
35577;BME280;21680;52.400;16.920;2022-09-09T12:13:34;100454.68;;;23.27;60.50
35577;BME280;21680;52.400;16.920;2022-09-09T12:15:49;100454.12;;;23.37;60.44
35577;BME280;21680;52.400;16.920;2022-09-09T12:23:32;100439.03;;;23.33;59.54
35577;BME280;21680;52.400;16.920;2022-09-09T12:26:16;100438.22;;;23.23;59.25
35577;BME280;21680;52.400;16.920;2022-09-09T12:32:06;100439.55;;;23.05;58.93
35577;BME280;21680;52.400;16.920;2022-09-09T12:34:41;100436.55;;;23.12;58.96
35577;BME280;21680;52.400;16.920;2022-09-09T12:37:14;100427.69;;;23.28;58.79
35577;BME280;21680;52.400;16.920;2022-09-09T12:39:51;100431.78;;;23.46;58.79
35577;BME280;21680;52.400;16.920;2022-09-09T12:42:19;100432.39;;;23.85;58.63
35577;BME280;21680;52.400;16.920;2022-09-09T12:44:52;100428.24;;;24.20;58.21
35577;BME280;21680;52.400;16.920;2022-09-09T12:47:21;100431.41;;;24.51;57.22
35577;BME280;21680;52.400;16.920;2022-09-09T12:49:53;100432.94;;;24.50;57.28
35577;BME280;21680;52.400;16.920;2022-09-09T12:52:25;100427.64;;;24.52;56.91
35577;BME280;21680;52.400;16.920;2022-09-09T12:54:58;100432.20;;;24.70;56.62
35577;BME280;21680;52.400;16.920;2022-09-09T12:57:25;100420.01;;;24.64;56.14
35577;BME280;21680;52.400;16.920;2022-09-09T13:00:03;100418.52;;;24.74;56.01
35577;BME280;21680;52.400;16.920;2022-09-09T13:02:27;100429.02;;;25.12;55.97
35577;BME280;21680;52.400;16.920;2022-09-09T13:05:05;100426.23;;;25.54;55.58
35577;BME280;21680;52.400;16.920;2022-09-09T13:07:24;100424.86;;;25.54;53.51
35577;BME280;21680;52.400;16.920;2022-09-09T13:09:51;100427.96;;;25.05;53.39
35577;BME280;21680;52.400;16.920;2022-09-09T13:12:21;100431.88;;;24.73;53.53
35577;BME280;21680;52.400;16.920;2022-09-09T13:14:53;100434.23;;;24.64;53.68
35577;BME280;21680;52.400;16.920;2022-09-09T13:17:26;100429.22;;;24.89;53.98
35577;BME280;21680;52.400;16.920;2022-09-09T13:19:50;100423.13;;;25.45;53.95
35577;BME280;21680;52.400;16.920;2022-09-09T13:22:22;100419.80;;;25.96;53.57
35577;BME280;21680;52.400;16.920;2022-09-09T13:25:05;100428.84;;;26.62;53.18
35577;BME280;21680;52.400;16.920;2022-09-09T13:27:35;100423.59;;;26.91;52.37
35577;BME280;21680;52.400;16.920;2022-09-09T13:30:18;100424.18;;;26.70;52.11
35577;BME280;21680;52.400;16.920;2022-09-09T13:33:01;100424.56;;;26.51;51.83
35577;BME280;21680;52.400;16.920;2022-09-09T13:35:28;100420.30;;;26.32;51.45
35577;BME280;21680;52.400;16.920;2022-09-09T13:37:54;100424.91;;;26.28;51.29
35577;BME280;21680;52.400;16.920;2022-09-09T13:40:20;100429.72;;;26.01;50.98
35577;BME280;21680;52.400;16.920;2022-09-09T13:42:50;100424.58;;;25.66;51.06
35577;BME280;21680;52.400;16.920;2022-09-09T13:45:21;100423.16;;;25.62;51.28
35577;BME280;21680;52.400;16.920;2022-09-09T13:47:48;100419.91;;;25.62;51.03
35577;BME280;21680;52.400;16.920;2022-09-09T13:50:27;100420.23;;;25.55;50.79
35577;BME280;21680;52.400;16.920;2022-09-09T13:52:54;100425.22;;;25.64;51.17
35577;BME280;21680;52.400;16.920;2022-09-09T13:55:23;100418.41;;;26.33;51.26
35577;BME280;21680;52.400;16.920;2022-09-09T13:57:53;100415.52;;;26.90;50.86
35577;BME280;21680;52.400;16.920;2022-09-09T14:00:25;100411.05;;;27.36;50.24
35577;BME280;21680;52.400;16.920;2022-09-09T14:02:51;100409.16;;;27.67;50.17
35577;BME280;21680;52.400;16.920;2022-09-09T14:05:17;100406.72;;;27.72;49.69
35577;BME280;21680;52.400;16.920;2022-09-09T14:07:43;100402.83;;;27.86;49.71
35577;BME280;21680;52.400;16.920;2022-09-09T14:10:10;100395.52;;;27.74;48.79
35577;BME280;21680;52.400;16.920;2022-09-09T14:12:36;100394.41;;;27.56;49.02
35577;BME280;21680;52.400;16.920;2022-09-09T14:15:04;100397.73;;;27.47;48.94
35577;BME280;21680;52.400;16.920;2022-09-09T14:17:31;100389.44;;;27.25;48.58
35577;BME280;21680;52.400;16.920;2022-09-09T14:19:57;100400.73;;;26.91;48.40